Grant Road Addition, Washington
Current Conditions -  °F | °C
As of 9:55 AM on Saturday 25 Oct 2014 (Local Time) from KEAT Reporting Station
Overcast Overcast  
Wind Chill: 45°   Ceiling: 3500
Heat Index: 49°   Visibility: 10mi
Dew Point: 44°   Wind: 9mph
Humidity: 83%   Direction: 310°NW
Pressure: 29.65"   Gusts: NA
Location:  47.3635°N, 120.348°W
Report Text: KEAT 251655Z AUTO 31008KT 10SM OVC035 09/07 A2965 RMK AO2 SLP044 T00940067
Loading
Personal Weather Stations






























Interactive Weather Map
Tropical Storm Tracking
New forecast layout! Learn more

10-Day Weather Forecast

Advertisements
Track Severe Weather on mobile